sensor_id;sensor_type;location;lat;lon;timestamp;P1;durP1;ratioP1;P2;durP2;ratioP2
25917;SDS011;13899;51.174;4.456;2023-09-30T00:00:14;8.77;;;7.90;;
25917;SDS011;13899;51.174;4.456;2023-09-30T00:02:40;9.23;;;8.27;;
25917;SDS011;13899;51.174;4.456;2023-09-30T00:05:06;9.35;;;8.43;;
25917;SDS011;13899;51.174;4.456;2023-09-30T00:07:32;13.55;;;9.00;;
25917;SDS011;13899;51.174;4.456;2023-09-30T00:09:58;9.15;;;7.90;;
25917;SDS011;13899;51.174;4.456;2023-09-30T00:12:24;9.27;;;8.07;;
25917;SDS011;13899;51.174;4.456;2023-09-30T00:14:50;9.65;;;8.23;;
25917;SDS011;13899;51.174;4.456;2023-09-30T00:17:16;8.63;;;7.82;;
25917;SDS011;13899;51.174;4.456;2023-09-30T00:19:42;13.82;;;8.07;;
25917;SDS011;13899;51.174;4.456;2023-09-30T00:22:07;16.40;;;8.40;;
25917;SDS011;13899;51.174;4.456;2023-09-30T00:24:33;9.50;;;8.20;;
25917;SDS011;13899;51.174;4.456;2023-09-30T00:26:59;10.33;;;8.60;;
25917;SDS011;13899;51.174;4.456;2023-09-30T00:29:25;12.05;;;7.95;;
25917;SDS011;13899;51.174;4.456;2023-09-30T00:31:51;9.82;;;8.07;;
25917;SDS011;13899;51.174;4.456;2023-09-30T00:34:17;9.25;;;7.43;;
25917;SDS011;13899;51.174;4.456;2023-09-30T00:36:43;10.10;;;7.28;;
25917;SDS011;13899;51.174;4.456;2023-09-30T00:39:09;9.43;;;7.57;;
25917;SDS011;13899;51.174;4.456;2023-09-30T00:41:35;10.97;;;7.87;;
25917;SDS011;13899;51.174;4.456;2023-09-30T00:44:01;11.52;;;8.05;;
25917;SDS011;13899;51.174;4.456;2023-09-30T00:46:31;8.60;;;7.32;;
25917;SDS011;13899;51.174;4.456;2023-09-30T00:48:58;8.50;;;7.60;;
25917;SDS011;13899;51.174;4.456;2023-09-30T00:51:25;10.68;;;8.10;;
25917;SDS011;13899;51.174;4.456;2023-09-30T00:53:51;10.90;;;8.20;;
25917;SDS011;13899;51.174;4.456;2023-09-30T00:56:19;11.88;;;7.35;;
25917;SDS011;13899;51.174;4.456;2023-09-30T00:58:48;9.27;;;8.38;;
25917;SDS011;13899;51.174;4.456;2023-09-30T01:01:16;10.98;;;8.32;;
25917;SDS011;13899;51.174;4.456;2023-09-30T01:03:45;11.65;;;8.55;;
25917;SDS011;13899;51.174;4.456;2023-09-30T01:06:11;9.85;;;7.93;;
25917;SDS011;13899;51.174;4.456;2023-09-30T01:08:37;10.40;;;7.63;;
25917;SDS011;13899;51.174;4.456;2023-09-30T01:11:03;11.88;;;8.15;;
25917;SDS011;13899;51.174;4.456;2023-09-30T01:13:36;14.88;;;8.77;;
25917;SDS011;13899;51.174;4.456;2023-09-30T01:16:06;10.25;;;8.23;;
25917;SDS011;13899;51.174;4.456;2023-09-30T01:18:37;12.05;;;8.35;;
25917;SDS011;13899;51.174;4.456;2023-09-30T01:21:04;9.18;;;8.27;;
25917;SDS011;13899;51.174;4.456;2023-09-30T01:23:31;12.68;;;7.88;;
25917;SDS011;13899;51.174;4.456;2023-09-30T01:26:03;12.98;;;8.27;;
25917;SDS011;13899;51.174;4.456;2023-09-30T01:28:34;11.73;;;8.57;;
25917;SDS011;13899;51.174;4.456;2023-09-30T01:31:00;11.10;;;8.90;;
25917;SDS011;13899;51.174;4.456;2023-09-30T01:33:26;10.00;;;8.77;;
25917;SDS011;13899;51.174;4.456;2023-09-30T01:35:53;11.10;;;9.20;;
25917;SDS011;13899;51.174;4.456;2023-09-30T01:38:19;11.00;;;9.57;;
25917;SDS011;13899;51.174;4.456;2023-09-30T01:40:45;12.48;;;9.68;;
25917;SDS011;13899;51.174;4.456;2023-09-30T01:43:12;12.57;;;10.23;;
25917;SDS011;13899;51.174;4.456;2023-09-30T01:45:41;15.38;;;8.93;;
25917;SDS011;13899;51.174;4.456;2023-09-30T01:48:07;12.88;;;8.63;;
25917;SDS011;13899;51.174;4.456;2023-09-30T01:50:37;12.85;;;9.32;;
25917;SDS011;13899;51.174;4.456;2023-09-30T01:53:04;10.90;;;9.35;;
25917;SDS011;13899;51.174;4.456;2023-09-30T01:55:31;13.75;;;10.23;;
25917;SDS011;13899;51.174;4.456;2023-09-30T02:00:23;18.87;;;10.63;;
25917;SDS011;13899;51.174;4.456;2023-09-30T02:02:49;12.68;;;9.23;;
25917;SDS011;13899;51.174;4.456;2023-09-30T02:05:15;11.40;;;10.30;;
25917;SDS011;13899;51.174;4.456;2023-09-30T02:07:41;12.27;;;10.97;;
25917;SDS011;13899;51.174;4.456;2023-09-30T02:10:07;11.70;;;10.30;;
25917;SDS011;13899;51.174;4.456;2023-09-30T02:12:33;12.57;;;9.90;;
25917;SDS011;13899;51.174;4.456;2023-09-30T02:14:58;15.50;;;10.43;;
25917;SDS011;13899;51.174;4.456;2023-09-30T02:17:24;11.07;;;9.70;;
25917;SDS011;13899;51.174;4.456;2023-09-30T02:19:50;16.93;;;11.37;;
25917;SDS011;13899;51.174;4.456;2023-09-30T02:22:15;10.77;;;9.43;;
25917;SDS011;13899;51.174;4.456;2023-09-30T02:24:41;12.23;;;10.57;;
25917;SDS011;13899;51.174;4.456;2023-09-30T02:27:07;11.63;;;10.43;;
25917;SDS011;13899;51.174;4.456;2023-09-30T02:29:33;13.70;;;10.50;;
25917;SDS011;13899;51.174;4.456;2023-09-30T02:31:58;13.27;;;10.33;;
25917;SDS011;13899;51.174;4.456;2023-09-30T02:34:24;13.27;;;11.38;;
25917;SDS011;13899;51.174;4.456;2023-09-30T02:36:50;15.67;;;10.90;;
25917;SDS011;13899;51.174;4.456;2023-09-30T02:39:16;14.15;;;10.60;;
25917;SDS011;13899;51.174;4.456;2023-09-30T02:41:42;13.37;;;10.40;;
25917;SDS011;13899;51.174;4.456;2023-09-30T02:44:08;13.27;;;10.37;;
25917;SDS011;13899;51.174;4.456;2023-09-30T02:46:34;20.58;;;10.48;;
25917;SDS011;13899;51.174;4.456;2023-09-30T02:49:03;17.02;;;11.20;;
25917;SDS011;13899;51.174;4.456;2023-09-30T02:51:28;13.55;;;10.20;;
25917;SDS011;13899;51.174;4.456;2023-09-30T02:53:55;12.05;;;9.68;;
25917;SDS011;13899;51.174;4.456;2023-09-30T02:56:21;14.10;;;9.50;;
25917;SDS011;13899;51.174;4.456;2023-09-30T02:58:49;12.57;;;9.65;;
25917;SDS011;13899;51.174;4.456;2023-09-30T03:01:16;16.17;;;9.43;;
25917;SDS011;13899;51.174;4.456;2023-09-30T03:03:42;14.57;;;9.07;;
25917;SDS011;13899;51.174;4.456;2023-09-30T03:06:11;13.10;;;8.93;;
25917;SDS011;13899;51.174;4.456;2023-09-30T03:08:37;11.83;;;7.90;;
25917;SDS011;13899;51.174;4.456;2023-09-30T03:11:03;18.90;;;9.13;;
25917;SDS011;13899;51.174;4.456;2023-09-30T03:13:30;12.60;;;8.85;;
25917;SDS011;13899;51.174;4.456;2023-09-30T03:15:56;14.95;;;8.80;;
25917;SDS011;13899;51.174;4.456;2023-09-30T03:18:22;13.63;;;9.17;;
25917;SDS011;13899;51.174;4.456;2023-09-30T03:20:58;14.98;;;9.15;;
25917;SDS011;13899;51.174;4.456;2023-09-30T03:23:33;11.10;;;8.23;;
25917;SDS011;13899;51.174;4.456;2023-09-30T03:26:00;11.35;;;9.25;;
25917;SDS011;13899;51.174;4.456;2023-09-30T03:28:29;18.38;;;11.95;;
25917;SDS011;13899;51.174;4.456;2023-09-30T03:30:54;13.48;;;9.80;;
25917;SDS011;13899;51.174;4.456;2023-09-30T03:33:21;15.93;;;9.32;;
25917;SDS011;13899;51.174;4.456;2023-09-30T03:35:47;17.02;;;10.20;;
25917;SDS011;13899;51.174;4.456;2023-09-30T03:38:13;12.93;;;8.57;;
25917;SDS011;13899;51.174;4.456;2023-09-30T03:40:41;13.27;;;10.37;;
25917;SDS011;13899;51.174;4.456;2023-09-30T03:43:12;13.20;;;8.95;;
25917;SDS011;13899;51.174;4.456;2023-09-30T03:45:41;14.05;;;10.05;;
25917;SDS011;13899;51.174;4.456;2023-09-30T03:48:07;16.63;;;9.88;;
25917;SDS011;13899;51.174;4.456;2023-09-30T03:50:35;19.38;;;11.45;;
25917;SDS011;13899;51.174;4.456;2023-09-30T03:53:01;17.13;;;10.38;;
25917;SDS011;13899;51.174;4.456;2023-09-30T03:55:28;13.63;;;10.32;;
25917;SDS011;13899;51.174;4.456;2023-09-30T04:00:20;13.50;;;9.60;;
25917;SDS011;13899;51.174;4.456;2023-09-30T04:02:46;16.77;;;11.13;;
25917;SDS011;13899;51.174;4.456;2023-09-30T04:05:23;13.45;;;10.30;;
25917;SDS011;13899;51.174;4.456;2023-09-30T04:07:54;16.50;;;11.43;;
25917;SDS011;13899;51.174;4.456;2023-09-30T04:10:20;18.95;;;10.95;;
25917;SDS011;13899;51.174;4.456;2023-09-30T04:12:47;17.80;;;11.00;;
25917;SDS011;13899;51.174;4.456;2023-09-30T04:15:13;16.27;;;10.65;;
25917;SDS011;13899;51.174;4.456;2023-09-30T04:17:39;17.93;;;11.53;;
25917;SDS011;13899;51.174;4.456;2023-09-30T04:20:05;22.17;;;11.33;;
25917;SDS011;13899;51.174;4.456;2023-09-30T04:22:35;16.52;;;10.73;;
25917;SDS011;13899;51.174;4.456;2023-09-30T04:25:01;16.50;;;10.37;;
25917;SDS011;13899;51.174;4.456;2023-09-30T04:27:30;15.27;;;10.95;;
25917;SDS011;13899;51.174;4.456;2023-09-30T04:29:56;11.80;;;10.50;;
25917;SDS011;13899;51.174;4.456;2023-09-30T04:32:22;16.33;;;10.35;;
25917;SDS011;13899;51.174;4.456;2023-09-30T04:34:47;18.87;;;11.20;;
25917;SDS011;13899;51.174;4.456;2023-09-30T04:37:13;24.08;;;13.05;;
25917;SDS011;13899;51.174;4.456;2023-09-30T04:39:39;21.65;;;13.52;;
25917;SDS011;13899;51.174;4.456;2023-09-30T04:42:05;17.10;;;11.02;;
25917;SDS011;13899;51.174;4.456;2023-09-30T04:44:30;20.48;;;11.23;;
25917;SDS011;13899;51.174;4.456;2023-09-30T04:46:56;17.77;;;12.65;;
25917;SDS011;13899;51.174;4.456;2023-09-30T04:49:22;22.17;;;12.85;;
25917;SDS011;13899;51.174;4.456;2023-09-30T04:51:49;22.98;;;12.07;;
25917;SDS011;13899;51.174;4.456;2023-09-30T04:54:14;20.20;;;12.77;;
25917;SDS011;13899;51.174;4.456;2023-09-30T04:56:40;17.48;;;12.52;;
25917;SDS011;13899;51.174;4.456;2023-09-30T04:59:06;23.27;;;13.27;;
25917;SDS011;13899;51.174;4.456;2023-09-30T05:01:32;22.05;;;12.68;;
25917;SDS011;13899;51.174;4.456;2023-09-30T05:03:58;26.40;;;13.63;;
25917;SDS011;13899;51.174;4.456;2023-09-30T05:06:24;30.67;;;13.53;;
25917;SDS011;13899;51.174;4.456;2023-09-30T05:08:49;20.15;;;13.00;;
25917;SDS011;13899;51.174;4.456;2023-09-30T05:11:15;24.17;;;13.03;;
25917;SDS011;13899;51.174;4.456;2023-09-30T05:13:41;20.53;;;13.10;;
25917;SDS011;13899;51.174;4.456;2023-09-30T05:16:07;21.93;;;13.03;;
25917;SDS011;13899;51.174;4.456;2023-09-30T05:18:33;19.80;;;12.60;;
25917;SDS011;13899;51.174;4.456;2023-09-30T05:20:59;21.90;;;13.40;;
25917;SDS011;13899;51.174;4.456;2023-09-30T05:23:25;19.17;;;12.93;;
25917;SDS011;13899;51.174;4.456;2023-09-30T05:25:51;23.57;;;13.80;;
25917;SDS011;13899;51.174;4.456;2023-09-30T05:28:19;20.50;;;13.40;;
25917;SDS011;13899;51.174;4.456;2023-09-30T05:30:45;32.20;;;12.88;;
25917;SDS011;13899;51.174;4.456;2023-09-30T05:33:11;20.20;;;13.93;;
25917;SDS011;13899;51.174;4.456;2023-09-30T05:35:41;19.88;;;12.95;;
25917;SDS011;13899;51.174;4.456;2023-09-30T05:38:07;26.07;;;14.20;;
25917;SDS011;13899;51.174;4.456;2023-09-30T05:40:33;32.10;;;15.13;;
25917;SDS011;13899;51.174;4.456;2023-09-30T05:42:59;24.60;;;15.00;;
25917;SDS011;13899;51.174;4.456;2023-09-30T05:45:25;25.27;;;13.95;;
25917;SDS011;13899;51.174;4.456;2023-09-30T05:47:52;16.27;;;14.07;;
25917;SDS011;13899;51.174;4.456;2023-09-30T05:50:19;20.17;;;13.82;;
25917;SDS011;13899;51.174;4.456;2023-09-30T05:52:49;25.48;;;14.40;;
25917;SDS011;13899;51.174;4.456;2023-09-30T05:55:16;25.45;;;14.98;;
25917;SDS011;13899;51.174;4.456;2023-09-30T05:57:46;21.92;;;14.20;;
25917;SDS011;13899;51.174;4.456;2023-09-30T06:00:14;27.20;;;13.85;;
25917;SDS011;13899;51.174;4.456;2023-09-30T06:02:46;24.48;;;14.45;;
25917;SDS011;13899;51.174;4.456;2023-09-30T06:05:12;37.50;;;16.05;;
25917;SDS011;13899;51.174;4.456;2023-09-30T06:07:40;42.95;;;26.40;;
25917;SDS011;13899;51.174;4.456;2023-09-30T06:10:06;27.87;;;16.67;;
25917;SDS011;13899;51.174;4.456;2023-09-30T06:12:34;23.42;;;13.73;;
25917;SDS011;13899;51.174;4.456;2023-09-30T06:15:01;25.10;;;14.77;;
25917;SDS011;13899;51.174;4.456;2023-09-30T06:17:27;27.13;;;14.65;;
25917;SDS011;13899;51.174;4.456;2023-09-30T06:19:53;32.10;;;14.80;;
25917;SDS011;13899;51.174;4.456;2023-09-30T06:22:20;24.00;;;14.00;;
25917;SDS011;13899;51.174;4.456;2023-09-30T06:24:46;25.67;;;14.88;;
25917;SDS011;13899;51.174;4.456;2023-09-30T06:27:13;25.13;;;14.30;;
25917;SDS011;13899;51.174;4.456;2023-09-30T06:29:39;26.10;;;14.53;;
25917;SDS011;13899;51.174;4.456;2023-09-30T06:34:32;22.95;;;13.80;;
25917;SDS011;13899;51.174;4.456;2023-09-30T06:36:59;26.83;;;13.98;;
25917;SDS011;13899;51.174;4.456;2023-09-30T06:39:25;20.57;;;13.87;;
25917;SDS011;13899;51.174;4.456;2023-09-30T06:41:50;32.53;;;14.40;;
25917;SDS011;13899;51.174;4.456;2023-09-30T06:44:16;35.53;;;14.93;;
25917;SDS011;13899;51.174;4.456;2023-09-30T06:46:42;27.97;;;14.60;;
25917;SDS011;13899;51.174;4.456;2023-09-30T06:49:08;28.52;;;14.05;;
25917;SDS011;13899;51.174;4.456;2023-09-30T06:51:35;31.38;;;14.32;;
25917;SDS011;13899;51.174;4.456;2023-09-30T06:54:01;28.70;;;14.20;;
25917;SDS011;13899;51.174;4.456;2023-09-30T06:56:31;32.70;;;14.80;;
25917;SDS011;13899;51.174;4.456;2023-09-30T06:58:57;23.13;;;13.73;;
25917;SDS011;13899;51.174;4.456;2023-09-30T07:01:23;26.17;;;14.30;;
25917;SDS011;13899;51.174;4.456;2023-09-30T07:03:48;26.63;;;14.27;;
25917;SDS011;13899;51.174;4.456;2023-09-30T07:06:21;25.38;;;13.30;;
25917;SDS011;13899;51.174;4.456;2023-09-30T07:08:50;24.23;;;13.45;;
25917;SDS011;13899;51.174;4.456;2023-09-30T07:11:16;26.70;;;13.30;;
25917;SDS011;13899;51.174;4.456;2023-09-30T07:13:42;26.58;;;13.80;;
25917;SDS011;13899;51.174;4.456;2023-09-30T07:16:07;26.33;;;13.30;;
25917;SDS011;13899;51.174;4.456;2023-09-30T07:18:33;22.58;;;13.25;;
25917;SDS011;13899;51.174;4.456;2023-09-30T07:20:59;23.02;;;12.48;;
25917;SDS011;13899;51.174;4.456;2023-09-30T07:23:24;18.30;;;11.57;;
25917;SDS011;13899;51.174;4.456;2023-09-30T07:25:50;28.38;;;12.80;;
25917;SDS011;13899;51.174;4.456;2023-09-30T07:28:16;26.42;;;13.32;;
25917;SDS011;13899;51.174;4.456;2023-09-30T07:30:41;29.63;;;13.10;;
25917;SDS011;13899;51.174;4.456;2023-09-30T07:33:08;26.00;;;13.38;;
25917;SDS011;13899;51.174;4.456;2023-09-30T07:35:34;21.77;;;12.97;;
25917;SDS011;13899;51.174;4.456;2023-09-30T07:38:00;24.45;;;13.18;;
25917;SDS011;13899;51.174;4.456;2023-09-30T07:40:26;25.10;;;12.52;;
25917;SDS011;13899;51.174;4.456;2023-09-30T07:42:52;22.88;;;11.52;;
25917;SDS011;13899;51.174;4.456;2023-09-30T07:45:19;20.03;;;11.23;;
25917;SDS011;13899;51.174;4.456;2023-09-30T07:47:46;18.85;;;11.15;;
25917;SDS011;13899;51.174;4.456;2023-09-30T07:50:11;26.27;;;12.27;;
25917;SDS011;13899;51.174;4.456;2023-09-30T07:52:38;25.07;;;11.00;;
25917;SDS011;13899;51.174;4.456;2023-09-30T07:57:30;20.80;;;10.80;;
25917;SDS011;13899;51.174;4.456;2023-09-30T07:59:56;23.73;;;11.18;;
25917;SDS011;13899;51.174;4.456;2023-09-30T08:02:21;19.10;;;10.52;;
25917;SDS011;13899;51.174;4.456;2023-09-30T08:04:47;23.88;;;10.70;;
25917;SDS011;13899;51.174;4.456;2023-09-30T08:07:13;13.00;;;9.65;;
25917;SDS011;13899;51.174;4.456;2023-09-30T08:09:39;28.42;;;9.50;;
25917;SDS011;13899;51.174;4.456;2023-09-30T08:12:04;24.00;;;9.97;;
25917;SDS011;13899;51.174;4.456;2023-09-30T08:14:31;22.60;;;10.48;;
25917;SDS011;13899;51.174;4.456;2023-09-30T08:16:57;19.83;;;9.67;;
25917;SDS011;13899;51.174;4.456;2023-09-30T08:19:22;16.10;;;9.43;;
25917;SDS011;13899;51.174;4.456;2023-09-30T08:21:48;22.87;;;11.10;;
25917;SDS011;13899;51.174;4.456;2023-09-30T08:24:14;18.73;;;10.20;;
25917;SDS011;13899;51.174;4.456;2023-09-30T08:26:39;27.23;;;9.43;;
25917;SDS011;13899;51.174;4.456;2023-09-30T08:29:06;19.67;;;10.10;;
25917;SDS011;13899;51.174;4.456;2023-09-30T08:31:31;16.73;;;8.10;;
25917;SDS011;13899;51.174;4.456;2023-09-30T08:33:58;21.40;;;8.98;;
25917;SDS011;13899;51.174;4.456;2023-09-30T08:36:23;21.83;;;8.23;;
25917;SDS011;13899;51.174;4.456;2023-09-30T08:38:49;19.98;;;8.48;;
25917;SDS011;13899;51.174;4.456;2023-09-30T08:41:31;11.95;;;7.55;;
25917;SDS011;13899;51.174;4.456;2023-09-30T08:44:01;25.85;;;9.05;;
25917;SDS011;13899;51.174;4.456;2023-09-30T08:46:32;17.85;;;8.23;;
25917;SDS011;13899;51.174;4.456;2023-09-30T08:49:00;22.63;;;8.05;;
25917;SDS011;13899;51.174;4.456;2023-09-30T08:51:28;20.38;;;8.45;;
25917;SDS011;13899;51.174;4.456;2023-09-30T08:56:22;25.83;;;8.90;;
25917;SDS011;13899;51.174;4.456;2023-09-30T08:58:52;21.58;;;7.95;;
25917;SDS011;13899;51.174;4.456;2023-09-30T09:01:22;25.42;;;8.07;;
25917;SDS011;13899;51.174;4.456;2023-09-30T09:03:53;17.83;;;8.20;;
25917;SDS011;13899;51.174;4.456;2023-09-30T09:06:22;19.75;;;7.68;;
25917;SDS011;13899;51.174;4.456;2023-09-30T09:08:50;19.40;;;8.55;;
25917;SDS011;13899;51.174;4.456;2023-09-30T09:11:16;32.53;;;8.30;;
25917;SDS011;13899;51.174;4.456;2023-09-30T09:13:54;18.13;;;7.22;;
25917;SDS011;13899;51.174;4.456;2023-09-30T09:16:25;15.27;;;7.72;;
25917;SDS011;13899;51.174;4.456;2023-09-30T09:18:51;14.90;;;6.67;;
25917;SDS011;13899;51.174;4.456;2023-09-30T09:21:19;15.80;;;6.35;;
25917;SDS011;13899;51.174;4.456;2023-09-30T09:23:48;13.30;;;6.38;;
25917;SDS011;13899;51.174;4.456;2023-09-30T09:28:56;18.85;;;6.38;;
25917;SDS011;13899;51.174;4.456;2023-09-30T09:31:24;15.57;;;6.15;;
25917;SDS011;13899;51.174;4.456;2023-09-30T09:33:59;11.50;;;5.15;;
25917;SDS011;13899;51.174;4.456;2023-09-30T09:36:44;13.13;;;4.78;;
25917;SDS011;13899;51.174;4.456;2023-09-30T09:39:11;15.60;;;4.57;;
25917;SDS011;13899;51.174;4.456;2023-09-30T09:44:21;19.20;;;5.53;;
25917;SDS011;13899;51.174;4.456;2023-09-30T09:46:48;10.77;;;6.18;;
25917;SDS011;13899;51.174;4.456;2023-09-30T09:49:17;8.90;;;3.92;;
25917;SDS011;13899;51.174;4.456;2023-09-30T09:51:45;11.43;;;3.33;;
25917;SDS011;13899;51.174;4.456;2023-09-30T09:54:12;11.35;;;4.07;;
25917;SDS011;13899;51.174;4.456;2023-09-30T09:56:38;12.63;;;5.07;;
25917;SDS011;13899;51.174;4.456;2023-09-30T09:59:04;14.10;;;5.05;;
25917;SDS011;13899;51.174;4.456;2023-09-30T10:01:32;9.52;;;3.47;;
25917;SDS011;13899;51.174;4.456;2023-09-30T10:04:00;8.75;;;3.92;;
25917;SDS011;13899;51.174;4.456;2023-09-30T10:08:52;10.70;;;4.75;;
25917;SDS011;13899;51.174;4.456;2023-09-30T10:11:21;20.35;;;10.32;;
25917;SDS011;13899;51.174;4.456;2023-09-30T10:21:39;9.90;;;4.95;;
25917;SDS011;13899;51.174;4.456;2023-09-30T10:29:39;8.48;;;3.17;;
25917;SDS011;13899;51.174;4.456;2023-09-30T10:32:06;7.63;;;3.08;;
25917;SDS011;13899;51.174;4.456;2023-09-30T10:34:32;12.75;;;6.82;;
25917;SDS011;13899;51.174;4.456;2023-09-30T10:36:59;17.38;;;15.82;;
25917;SDS011;13899;51.174;4.456;2023-09-30T10:39:55;11.70;;;8.63;;
25917;SDS011;13899;51.174;4.456;2023-09-30T10:50:56;9.60;;;3.40;;
25917;SDS011;13899;51.174;4.456;2023-09-30T10:53:26;8.38;;;2.78;;
25917;SDS011;13899;51.174;4.456;2023-09-30T11:01:10;13.30;;;12.07;;
25917;SDS011;13899;51.174;4.456;2023-09-30T11:03:38;14.20;;;12.80;;
25917;SDS011;13899;51.174;4.456;2023-09-30T11:06:04;9.02;;;6.82;;
25917;SDS011;13899;51.174;4.456;2023-09-30T11:08:30;12.57;;;11.43;;
25917;SDS011;13899;51.174;4.456;2023-09-30T11:10:57;7.82;;;5.38;;
25917;SDS011;13899;51.174;4.456;2023-09-30T11:13:22;12.00;;;3.30;;
25917;SDS011;13899;51.174;4.456;2023-09-30T11:16:04;14.73;;;13.52;;
25917;SDS011;13899;51.174;4.456;2023-09-30T11:18:30;14.20;;;12.85;;
25917;SDS011;13899;51.174;4.456;2023-09-30T11:21:10;8.63;;;2.65;;
25917;SDS011;13899;51.174;4.456;2023-09-30T11:23:40;10.73;;;6.90;;
25917;SDS011;13899;51.174;4.456;2023-09-30T11:26:06;8.77;;;7.53;;
25917;SDS011;13899;51.174;4.456;2023-09-30T11:28:39;8.30;;;3.50;;
25917;SDS011;13899;51.174;4.456;2023-09-30T11:31:07;12.95;;;11.85;;
25917;SDS011;13899;51.174;4.456;2023-09-30T11:33:48;13.05;;;12.05;;
25917;SDS011;13899;51.174;4.456;2023-09-30T11:36:19;8.63;;;4.78;;
25917;SDS011;13899;51.174;4.456;2023-09-30T11:38:46;9.85;;;2.85;;
25917;SDS011;13899;51.174;4.456;2023-09-30T11:41:14;8.20;;;2.40;;
25917;SDS011;13899;51.174;4.456;2023-09-30T11:43:57;9.98;;;2.95;;
25917;SDS011;13899;51.174;4.456;2023-09-30T11:46:30;13.77;;;12.88;;
25917;SDS011;13899;51.174;4.456;2023-09-30T11:48:59;5.93;;;2.40;;
25917;SDS011;13899;51.174;4.456;2023-09-30T11:51:26;6.55;;;2.60;;
25917;SDS011;13899;51.174;4.456;2023-09-30T11:53:53;4.85;;;2.30;;
25917;SDS011;13899;51.174;4.456;2023-09-30T11:56:20;4.85;;;1.92;;
25917;SDS011;13899;51.174;4.456;2023-09-30T11:58:47;6.47;;;4.38;;
25917;SDS011;13899;51.174;4.456;2023-09-30T12:01:13;8.60;;;4.88;;
25917;SDS011;13899;51.174;4.456;2023-09-30T12:03:39;12.70;;;11.60;;
25917;SDS011;13899;51.174;4.456;2023-09-30T12:06:05;7.00;;;6.40;;
25917;SDS011;13899;51.174;4.456;2023-09-30T12:08:31;6.95;;;1.90;;
25917;SDS011;13899;51.174;4.456;2023-09-30T12:10:57;5.73;;;1.73;;
25917;SDS011;13899;51.174;4.456;2023-09-30T12:13:24;7.53;;;2.15;;
25917;SDS011;13899;51.174;4.456;2023-09-30T12:15:51;5.65;;;2.65;;
25917;SDS011;13899;51.174;4.456;2023-09-30T12:18:18;4.65;;;1.50;;
25917;SDS011;13899;51.174;4.456;2023-09-30T12:20:48;5.60;;;1.52;;
25917;SDS011;13899;51.174;4.456;2023-09-30T12:23:18;5.03;;;4.53;;
25917;SDS011;13899;51.174;4.456;2023-09-30T12:25:45;6.03;;;2.30;;
25917;SDS011;13899;51.174;4.456;2023-09-30T12:28:11;7.07;;;5.10;;
25917;SDS011;13899;51.174;4.456;2023-09-30T12:30:39;19.42;;;18.23;;
25917;SDS011;13899;51.174;4.456;2023-09-30T12:33:05;9.00;;;8.43;;
25917;SDS011;13899;51.174;4.456;2023-09-30T12:37:58;7.53;;;6.75;;
25917;SDS011;13899;51.174;4.456;2023-09-30T12:40:23;5.03;;;2.60;;
25917;SDS011;13899;51.174;4.456;2023-09-30T12:42:49;7.80;;;2.10;;
25917;SDS011;13899;51.174;4.456;2023-09-30T12:45:15;3.70;;;1.63;;
25917;SDS011;13899;51.174;4.456;2023-09-30T12:47:43;6.68;;;2.33;;
25917;SDS011;13899;51.174;4.456;2023-09-30T12:50:09;6.88;;;2.80;;
25917;SDS011;13899;51.174;4.456;2023-09-30T12:52:35;5.03;;;1.93;;
25917;SDS011;13899;51.174;4.456;2023-09-30T12:55:01;5.25;;;2.00;;
25917;SDS011;13899;51.174;4.456;2023-09-30T12:57:27;4.60;;;1.95;;
25917;SDS011;13899;51.174;4.456;2023-09-30T12:59:53;3.90;;;1.90;;
25917;SDS011;13899;51.174;4.456;2023-09-30T13:02:19;4.07;;;2.10;;
25917;SDS011;13899;51.174;4.456;2023-09-30T13:04:45;7.80;;;1.70;;
25917;SDS011;13899;51.174;4.456;2023-09-30T13:07:11;6.10;;;1.73;;
25917;SDS011;13899;51.174;4.456;2023-09-30T13:09:40;5.25;;;2.03;;
25917;SDS011;13899;51.174;4.456;2023-09-30T13:12:07;5.78;;;1.70;;
25917;SDS011;13899;51.174;4.456;2023-09-30T13:14:33;6.15;;;1.80;;
25917;SDS011;13899;51.174;4.456;2023-09-30T13:16:59;4.82;;;1.90;;
25917;SDS011;13899;51.174;4.456;2023-09-30T13:19:26;6.28;;;2.00;;
25917;SDS011;13899;51.174;4.456;2023-09-30T13:21:51;6.13;;;1.93;;
25917;SDS011;13899;51.174;4.456;2023-09-30T13:24:21;6.55;;;2.15;;
25917;SDS011;13899;51.174;4.456;2023-09-30T13:26:49;6.32;;;1.90;;
25917;SDS011;13899;51.174;4.456;2023-09-30T13:29:17;6.68;;;2.80;;
25917;SDS011;13899;51.174;4.456;2023-09-30T13:31:43;7.20;;;2.33;;
25917;SDS011;13899;51.174;4.456;2023-09-30T13:34:10;7.63;;;2.20;;
25917;SDS011;13899;51.174;4.456;2023-09-30T13:36:37;5.03;;;1.88;;
25917;SDS011;13899;51.174;4.456;2023-09-30T13:39:03;4.68;;;1.50;;
25917;SDS011;13899;51.174;4.456;2023-09-30T13:41:34;5.35;;;1.80;;
25917;SDS011;13899;51.174;4.456;2023-09-30T13:44:01;5.35;;;1.98;;
25917;SDS011;13899;51.174;4.456;2023-09-30T13:46:26;5.53;;;2.13;;
25917;SDS011;13899;51.174;4.456;2023-09-30T13:48:53;8.27;;;2.97;;
25917;SDS011;13899;51.174;4.456;2023-09-30T13:51:19;6.60;;;2.00;;
25917;SDS011;13899;51.174;4.456;2023-09-30T13:53:44;9.73;;;2.20;;
25917;SDS011;13899;51.174;4.456;2023-09-30T13:56:10;5.83;;;1.97;;
25917;SDS011;13899;51.174;4.456;2023-09-30T13:58:36;5.47;;;1.80;;
25917;SDS011;13899;51.174;4.456;2023-09-30T14:01:02;6.03;;;1.90;;
25917;SDS011;13899;51.174;4.456;2023-09-30T14:03:28;6.32;;;2.10;;
25917;SDS011;13899;51.174;4.456;2023-09-30T14:05:54;4.83;;;1.83;;
25917;SDS011;13899;51.174;4.456;2023-09-30T14:08:22;5.53;;;1.70;;
25917;SDS011;13899;51.174;4.456;2023-09-30T14:10:47;6.03;;;1.70;;
25917;SDS011;13899;51.174;4.456;2023-09-30T14:13:14;6.78;;;1.65;;
25917;SDS011;13899;51.174;4.456;2023-09-30T14:15:40;3.78;;;1.65;;
25917;SDS011;13899;51.174;4.456;2023-09-30T14:18:06;4.13;;;1.67;;
25917;SDS011;13899;51.174;4.456;2023-09-30T14:20:31;4.33;;;1.60;;
25917;SDS011;13899;51.174;4.456;2023-09-30T14:22:58;3.65;;;2.00;;
25917;SDS011;13899;51.174;4.456;2023-09-30T14:25:24;4.73;;;1.73;;
25917;SDS011;13899;51.174;4.456;2023-09-30T14:27:50;4.50;;;1.70;;
25917;SDS011;13899;51.174;4.456;2023-09-30T14:30:15;4.60;;;1.80;;
25917;SDS011;13899;51.174;4.456;2023-09-30T14:32:41;4.30;;;1.70;;
25917;SDS011;13899;51.174;4.456;2023-09-30T14:35:07;5.90;;;2.08;;
25917;SDS011;13899;51.174;4.456;2023-09-30T14:37:34;4.90;;;2.20;;
25917;SDS011;13899;51.174;4.456;2023-09-30T14:40:01;6.55;;;1.88;;
25917;SDS011;13899;51.174;4.456;2023-09-30T14:42:30;7.03;;;1.90;;
25917;SDS011;13899;51.174;4.456;2023-09-30T14:44:56;7.00;;;1.90;;
25917;SDS011;13899;51.174;4.456;2023-09-30T14:47:22;6.82;;;2.53;;
25917;SDS011;13899;51.174;4.456;2023-09-30T14:49:48;5.87;;;2.10;;
25917;SDS011;13899;51.174;4.456;2023-09-30T14:52:14;5.47;;;2.03;;
25917;SDS011;13899;51.174;4.456;2023-09-30T14:54:40;5.60;;;1.80;;
25917;SDS011;13899;51.174;4.456;2023-09-30T14:57:06;4.28;;;2.00;;
25917;SDS011;13899;51.174;4.456;2023-09-30T14:59:33;5.55;;;1.98;;
25917;SDS011;13899;51.174;4.456;2023-09-30T15:01:59;6.00;;;2.20;;
25917;SDS011;13899;51.174;4.456;2023-09-30T15:04:25;4.90;;;2.10;;
25917;SDS011;13899;51.174;4.456;2023-09-30T15:06:51;7.93;;;2.10;;
25917;SDS011;13899;51.174;4.456;2023-09-30T15:09:16;5.97;;;1.67;;
25917;SDS011;13899;51.174;4.456;2023-09-30T15:11:43;5.10;;;1.58;;
25917;SDS011;13899;51.174;4.456;2023-09-30T15:14:08;6.60;;;1.93;;
25917;SDS011;13899;51.174;4.456;2023-09-30T15:16:34;5.37;;;1.60;;
25917;SDS011;13899;51.174;4.456;2023-09-30T15:19:00;6.37;;;2.30;;
25917;SDS011;13899;51.174;4.456;2023-09-30T15:21:26;9.43;;;2.57;;